Healy, AK

7:57 PM AKDT on September 19, 2014 (GMT -0800)
Denali Park | Change Station
CLOSE
Current Station
Airport
Location: Denali Park,
Elevation: 1719 ft
Nearby Weather Stations

Elev 1719 ft 63.73 °N, 148.91 °W | Updated 21 minutes ago

Overcast
Overcast
50 °F
Feels Like 50 °F
N
0
Wind Variable Wind from North

Today
High -- | Low -- °F
--% Chance of Precip.
Yesterday
High -- | Low -- °F
Precip. -- in
7:29 AM 8:04 PM
Waning Crescent, 15% visible
Pressure 29.36 in
Visibility 10.0 miles
Clouds Mostly Cloudy 4200 ft
Overcast 4900 ft
Dew Point 45 °F
Humidity 82%
Rainfall 0.00 in
Snow Depth 0 in , 0 in , 0 in
UV 0 out of 12
Pollen Not available.
Air Quality Not available.
Flu Activity Not available.
METAR PAIN 200336Z AUTO 00000KT 10SM BKN042 OVC049 10/07 A2936 RMK AO1

More Conditions Fewer Conditions

Pressure 29.36 in
Visibility 10.0 miles
Clouds Mostly Cloudy 4200 ft
Overcast 4900 ft
Dew Point 45 °F
Humidity 82%
Rainfall 0.00 in
Snow Depth 0 in , 0 in , 0 in
UV 0 out of 12
Pollen Not available.
Air Quality Not available.
Flu Activity Not available.
METAR PAIN 200336Z AUTO 00000KT 10SM BKN042 OVC049 10/07 A2936 RMK AO1

More Conditions Fewer Conditions

10-Day Weather Forecast

Almanac

Astronomy

Sep. 19, 2014 Rise Set
Actual Time 7:29 AM AKDT 8:04 PM AKDT
Civil Twilight 6:41 AM AKDT 8:52 PM AKDT
Nautical Twilight 5:42 AM AKDT 9:50 PM AKDT
Astronomical Twilight 4:32 AM AKDT 10:59 PM AKDT
Moon 2:13 AM AKDT (9/19) 6:37 PM AKDT (9/19)
Length of Visible Light 14h 10m
Length of Day
12h 35m
Tomorrow will be 6m 21s shorter.
Waning Crescent, 15% of the Moon is Illuminated
Today
Waning Crescent
Sep 24
New
Oct 1
First Quarter
Oct 8
Full
Oct 15
Last Quarter

Today's Extremes

State Highs State Lows

Community

WunderPhotos

Upload Photos

1,754,777 photos uploaded!

WunderBlogs® & News

Nearby

Snow Depth

Station Depth Elevation
Granite Creek 0 in 1240 ft
Eagle Summit 0 in 3650 ft
Long Lake 0 in 820 ft
Upper Tsaina River 0 in 1750 ft
Cooper Lake 12 in 1200 ft

Earthquake Activity

City Distance Mag. Time & Date
No recent earthquake activity has been reported nearby.
Minimum magnitude displayed is 2.5.

Coastal Water Temperatures

Place Temperature
No Stations Reporting

Nearby Weather Stations